createdAt,value
2019-06-10T00:00:50.792Z,9.60
2019-06-10T00:03:20.625Z,12.67
2019-06-10T00:05:51.610Z,9.73
2019-06-10T00:08:20.926Z,11.60
2019-06-10T00:10:51.097Z,8.83
2019-06-10T00:13:20.949Z,9.47
2019-06-10T00:15:51.351Z,11.63
2019-06-10T00:18:35.506Z,13.10
2019-06-10T00:20:51.218Z,11.53
2019-06-10T00:23:21.291Z,11.03
2019-06-10T00:25:51.398Z,9.83
2019-06-10T00:28:21.591Z,9.13
2019-06-10T00:30:51.418Z,11.47
2019-06-10T00:33:21.448Z,10.23
2019-06-10T00:35:51.340Z,12.30
2019-06-10T00:38:21.417Z,6.90
2019-06-10T00:40:51.369Z,14.10
2019-06-10T00:43:21.352Z,9.03
2019-06-10T00:45:51.364Z,5.10
2019-06-10T00:48:26.270Z,9.97
2019-06-10T00:50:51.628Z,11.77
2019-06-10T00:53:21.210Z,13.20
2019-06-10T00:55:51.326Z,7.70
2019-06-10T00:58:21.433Z,7.13
2019-06-10T01:00:51.430Z,11.53
2019-06-10T01:03:20.892Z,9.63
2019-06-10T01:05:50.860Z,6.67
2019-06-10T01:08:21.511Z,11.27
2019-06-10T01:10:51.971Z,11.07
2019-06-10T01:13:20.819Z,8.10
2019-06-10T01:15:51.121Z,4.23
2019-06-10T01:18:34.602Z,9.70
2019-06-10T01:20:51.704Z,12.07
2019-06-10T01:23:21.890Z,11.10
2019-06-10T01:25:51.080Z,6.97
2019-06-10T01:28:22.043Z,10.03
2019-06-10T01:30:51.695Z,7.13
2019-06-10T01:33:21.247Z,10.53
2019-06-10T01:35:51.433Z,8.47
2019-06-10T01:38:21.179Z,6.33
2019-06-10T01:40:51.003Z,6.77
2019-06-10T01:43:21.377Z,5.50
2019-06-10T01:45:51.065Z,10.50
2019-06-10T01:48:20.952Z,14.47
2019-06-10T01:50:51.334Z,7.80
2019-06-10T01:53:21.445Z,10.37
2019-06-10T01:55:51.815Z,9.33
2019-06-10T01:58:23.351Z,7.10
2019-06-10T02:01:03.248Z,5.33
2019-06-10T02:03:31.695Z,8.17
2019-06-10T02:06:01.382Z,14.80
2019-06-10T02:08:31.711Z,10.53
2019-06-10T02:11:01.158Z,10.40
2019-06-10T02:13:33.453Z,9.17
2019-06-10T02:16:02.615Z,10.37
2019-06-10T02:18:31.988Z,6.03
2019-06-10T02:21:01.082Z,12.60
2019-06-10T02:23:31.320Z,8.40
2019-06-10T02:26:01.599Z,9.50
2019-06-10T02:28:31.734Z,8.27
2019-06-10T02:31:03.416Z,10.53
2019-06-10T02:33:34.987Z,12.67
2019-06-10T02:36:03.455Z,6.67
2019-06-10T02:38:35.490Z,9.27
2019-06-10T02:41:03.653Z,7.47
2019-06-10T02:43:33.347Z,9.67
2019-06-10T02:46:00.050Z,6.57
2019-06-10T02:48:30.456Z,10.43
2019-06-10T02:51:04.062Z,8.40
2019-06-10T02:53:36.073Z,10.60
2019-06-10T02:56:04.223Z,10.33
2019-06-10T02:58:38.517Z,18.10
2019-06-10T03:01:04.233Z,10.30
2019-06-10T03:03:42.834Z,10.17
2019-06-10T03:06:07.571Z,15.37
2019-06-10T03:08:35.905Z,9.13
2019-06-10T03:11:03.708Z,6.80
2019-06-10T03:13:33.148Z,8.07
2019-06-10T03:16:22.685Z,10.83
2019-06-10T03:18:52.391Z,7.70
2019-06-10T03:21:20.015Z,8.67
2019-06-10T03:23:48.020Z,9.67
2019-06-10T03:26:17.256Z,7.90
2019-06-10T03:28:45.831Z,14.37
2019-06-10T03:31:15.545Z,6.80
2019-06-10T03:33:47.741Z,6.03
2019-06-10T03:36:14.157Z,10.90
2019-06-10T03:38:43.189Z,11.90
2019-06-10T03:41:12.457Z,11.17
2019-06-10T03:43:42.974Z,7.77
2019-06-10T03:46:13.350Z,8.70
2019-06-10T03:48:43.222Z,13.73
2019-06-10T03:51:12.566Z,11.07
2019-06-10T03:53:42.596Z,11.83
2019-06-10T03:56:12.822Z,11.77
2019-06-10T03:58:43.017Z,11.43
2019-06-10T04:01:12.274Z,7.37
2019-06-10T04:03:42.795Z,12.13
2019-06-10T04:06:12.987Z,13.80
2019-06-10T04:08:43.307Z,9.20
2019-06-10T04:11:12.156Z,6.40
2019-06-10T04:13:43.148Z,9.78
2019-06-10T04:16:13.130Z,6.97
2019-06-10T04:18:43.023Z,9.77
2019-06-10T04:21:12.929Z,10.13
2019-06-10T04:23:42.363Z,10.23
2019-06-10T04:26:12.755Z,10.40
2019-06-10T04:28:43.050Z,8.80
2019-06-10T04:31:13.128Z,8.57
2019-06-10T04:33:42.089Z,9.70
2019-06-10T04:36:13.209Z,13.33
2019-06-10T04:38:42.982Z,7.97
2019-06-10T04:41:12.636Z,11.60
2019-06-10T04:43:42.942Z,9.90
2019-06-10T04:46:12.673Z,9.20
2019-06-10T04:48:42.674Z,13.53
2019-06-10T04:51:12.743Z,12.63
2019-06-10T04:53:43.254Z,7.67
2019-06-10T04:56:12.276Z,10.80
2019-06-10T04:58:43.311Z,10.27
2019-06-10T05:01:18.869Z,14.93
2019-06-10T05:03:46.564Z,11.03
2019-06-10T05:06:14.824Z,13.53
2019-06-10T05:08:43.105Z,11.40
2019-06-10T05:11:12.773Z,11.20
2019-06-10T05:13:42.990Z,9.63
2019-06-10T05:16:12.555Z,8.40
2019-06-10T05:18:42.396Z,7.73
2019-06-10T05:21:13.174Z,9.87
2019-06-10T05:23:42.958Z,10.07
2019-06-10T05:26:13.195Z,13.93
2019-06-10T05:28:43.312Z,11.67
2019-06-10T05:31:12.911Z,9.80
2019-06-10T05:33:42.674Z,4.27
2019-06-10T05:36:13.204Z,10.63
2019-06-10T05:38:43.525Z,10.43
2019-06-10T05:41:13.368Z,6.90
2019-06-10T05:43:43.020Z,7.50
2019-06-10T05:46:13.148Z,8.83
2019-06-10T05:48:43.510Z,9.23
2019-06-10T05:51:12.387Z,5.70
2019-06-10T05:53:42.586Z,6.43
2019-06-10T05:56:12.790Z,5.30
2019-06-10T05:58:43.581Z,7.27
2019-06-10T06:01:13.160Z,9.93
2019-06-10T06:03:43.916Z,4.40
2019-06-10T06:06:12.478Z,4.17
2019-06-10T06:08:42.869Z,5.97
2019-06-10T06:11:12.638Z,9.47
2019-06-10T06:13:43.306Z,4.70
2019-06-10T06:16:12.590Z,4.60
2019-06-10T06:18:42.299Z,6.97
2019-06-10T06:21:22.525Z,3.83
2019-06-10T06:23:43.397Z,4.87
2019-06-10T06:26:16.375Z,6.97
2019-06-10T06:28:42.987Z,7.03
2019-06-10T06:31:12.717Z,5.30
2019-06-10T06:33:43.274Z,4.63
2019-06-10T06:36:12.495Z,7.20
2019-06-10T06:38:43.593Z,5.60
2019-06-10T06:41:13.416Z,4.77
2019-06-10T06:43:44.991Z,6.73
2019-06-10T06:46:12.889Z,6.40
2019-06-10T06:48:43.779Z,7.07
2019-06-10T06:51:12.929Z,6.50
2019-06-10T06:53:48.318Z,5.43
2019-06-10T06:56:12.577Z,6.57
2019-06-10T06:58:43.284Z,4.97
2019-06-10T07:01:14.407Z,4.33
2019-06-10T07:03:44.670Z,7.30
2019-06-10T07:06:13.149Z,7.20
2019-06-10T07:08:44.718Z,5.53
2019-06-10T07:11:13.211Z,6.80
2019-06-10T07:13:45.537Z,5.17
2019-06-10T07:16:13.183Z,7.40
2019-06-10T07:18:48.842Z,3.95
2019-06-10T07:21:13.225Z,5.13
2019-06-10T07:24:03.075Z,7.40
2019-06-10T07:26:34.131Z,5.03
2019-06-10T07:29:02.879Z,7.90
2019-06-10T07:31:33.770Z,2.47
2019-06-10T07:34:02.574Z,3.90
2019-06-10T07:36:32.913Z,4.87
2019-06-10T07:39:03.478Z,5.57
2019-06-10T07:41:32.787Z,5.03
2019-06-10T07:44:03.071Z,5.37
2019-06-10T07:46:33.544Z,5.83
2019-06-10T07:49:03.362Z,8.67
2019-06-10T07:51:32.912Z,5.60
2019-06-10T07:54:03.170Z,3.07
2019-06-10T07:56:37.243Z,4.73
2019-06-10T07:59:03.895Z,6.33
2019-06-10T08:01:33.280Z,3.27
2019-06-10T08:04:03.128Z,6.27
2019-06-10T08:06:33.486Z,4.53
2019-06-10T08:09:02.285Z,2.80
2019-06-10T08:11:33.102Z,3.07
2019-06-10T08:14:04.580Z,4.30
2019-06-10T08:16:32.740Z,6.10
2019-06-10T08:19:21.939Z,4.33
2019-06-10T08:21:32.318Z,2.50
2019-06-10T08:24:03.325Z,3.07
2019-06-10T08:26:32.427Z,4.00
2019-06-10T08:29:04.142Z,2.77
2019-06-10T08:31:33.325Z,11.67
2019-06-10T08:34:02.945Z,3.53
2019-06-10T08:36:33.365Z,3.33
2019-06-10T08:39:03.361Z,3.13
2019-06-10T08:41:32.361Z,6.00
2019-06-10T08:44:02.279Z,3.57
2019-06-10T08:46:32.766Z,4.97
2019-06-10T08:49:03.000Z,5.33
2019-06-10T08:51:32.464Z,6.63
2019-06-10T08:54:02.375Z,5.23
2019-06-10T08:56:32.789Z,4.40
2019-06-10T08:59:03.077Z,4.37
2019-06-10T09:01:31.137Z,3.13
2019-06-10T09:04:03.201Z,5.70
2019-06-10T09:06:32.794Z,5.77
2019-06-10T09:09:03.190Z,6.80
2019-06-10T09:11:32.875Z,4.00
2019-06-10T09:14:02.603Z,4.27
2019-06-10T09:16:32.839Z,2.97
2019-06-10T09:19:02.246Z,5.93
2019-06-10T09:21:33.103Z,6.23
2019-06-10T09:24:03.909Z,4.37
2019-06-10T09:26:33.730Z,5.80
2019-06-10T09:29:02.914Z,5.00
2019-06-10T09:31:33.182Z,4.73
2019-06-10T09:34:03.933Z,4.73
2019-06-10T09:36:32.555Z,6.90
2019-06-10T09:39:04.025Z,5.47
2019-06-10T09:41:40.187Z,5.20
2019-06-10T09:44:03.364Z,5.97
2019-06-10T09:46:33.116Z,4.97
2019-06-10T09:49:02.173Z,4.40
2019-06-10T09:51:32.372Z,6.23
2019-06-10T09:54:06.073Z,5.53
2019-06-10T09:56:33.007Z,4.93
2019-06-10T09:59:03.121Z,6.13
2019-06-10T10:01:32.683Z,5.73
2019-06-10T10:04:01.215Z,6.40
2019-06-10T10:06:29.637Z,3.67
2019-06-10T10:08:58.562Z,3.73
2019-06-10T10:11:28.882Z,4.70
2019-06-10T10:13:57.502Z,4.43
2019-06-10T10:16:26.574Z,4.17
2019-06-10T10:19:00.237Z,9.37
2019-06-10T10:21:24.903Z,3.90
2019-06-10T10:24:06.548Z,7.10
2019-06-10T10:26:23.266Z,3.63
2019-06-10T10:28:56.034Z,6.60
2019-06-10T10:31:23.830Z,3.43
2019-06-10T10:33:52.645Z,6.50
2019-06-10T10:36:22.658Z,7.37
2019-06-10T10:38:51.152Z,3.67
2019-06-10T10:41:19.410Z,3.63
2019-06-10T10:43:50.734Z,4.07
2019-06-10T10:46:17.674Z,6.57
2019-06-10T10:48:47.063Z,6.30
2019-06-10T10:51:15.561Z,3.00
2019-06-10T10:53:48.363Z,4.23
2019-06-10T10:56:13.920Z,5.87
2019-06-10T10:58:43.726Z,9.83
2019-06-10T11:01:15.061Z,5.17
2019-06-10T11:03:44.956Z,5.47
2019-06-10T11:06:12.937Z,4.93
2019-06-10T11:08:44.199Z,4.47
2019-06-10T11:11:13.406Z,3.70
2019-06-10T11:13:45.343Z,7.60
2019-06-10T11:16:14.046Z,5.13
2019-06-10T11:18:42.461Z,7.70
2019-06-10T11:21:13.041Z,5.47
2019-06-10T11:23:43.542Z,4.43
2019-06-10T11:26:12.955Z,3.87
2019-06-10T11:28:42.818Z,4.03
2019-06-10T11:31:13.419Z,6.00
2019-06-10T11:33:43.197Z,4.30
2019-06-10T11:36:13.224Z,8.37
2019-06-10T11:38:40.811Z,5.93
2019-06-10T11:41:09.155Z,7.00
2019-06-10T11:43:37.442Z,7.37
2019-06-10T11:46:07.729Z,8.57
2019-06-10T11:48:36.376Z,6.27
2019-06-10T11:51:05.025Z,7.47
2019-06-10T11:53:34.431Z,6.20
2019-06-10T11:56:03.120Z,6.07
2019-06-10T11:58:33.280Z,6.63
2019-06-10T12:01:03.865Z,5.53
2019-06-10T12:03:31.352Z,7.00
2019-06-10T12:06:02.018Z,8.77
2019-06-10T12:08:29.618Z,6.57
2019-06-10T12:11:01.836Z,8.70
2019-06-10T12:13:27.933Z,12.03
2019-06-10T12:18:26.804Z,6.47
2019-06-10T12:20:59.006Z,9.63
2019-06-10T12:23:25.248Z,5.50
2019-06-10T12:25:56.280Z,5.77
2019-06-10T12:28:23.492Z,8.10
2019-06-10T12:30:56.207Z,5.87
2019-06-10T12:33:25.571Z,8.13
2019-06-10T12:35:57.681Z,7.50
2019-06-10T12:38:23.672Z,5.00
2019-06-10T12:40:55.993Z,6.03
2019-06-10T12:43:23.205Z,11.53
2019-06-10T12:45:53.982Z,6.97
2019-06-10T12:48:23.280Z,10.07
2019-06-10T12:51:05.132Z,6.87
2019-06-10T12:53:26.589Z,13.90
2019-06-10T12:55:55.849Z,6.17
2019-06-10T12:58:24.840Z,7.70
2019-06-10T13:00:54.094Z,9.73
2019-06-10T13:03:23.778Z,5.90
2019-06-10T13:05:53.347Z,17.57
2019-06-10T13:08:23.860Z,12.13
2019-06-10T13:10:53.257Z,12.67
2019-06-10T13:13:22.732Z,14.43
2019-06-10T13:15:53.245Z,10.07
2019-06-10T13:18:23.735Z,8.70
2019-06-10T13:20:53.801Z,12.70
2019-06-10T13:23:28.954Z,9.17
2019-06-10T13:25:58.093Z,9.90
2019-06-10T13:28:22.283Z,12.50
2019-06-10T13:30:54.051Z,19.63
2019-06-10T13:33:22.914Z,16.77
2019-06-10T13:35:53.516Z,11.73
2019-06-10T13:38:22.786Z,9.73
2019-06-10T13:40:53.297Z,13.17
2019-06-10T13:43:23.256Z,11.67
2019-06-10T13:45:53.173Z,9.63
2019-06-10T13:48:23.359Z,10.90
2019-06-10T13:50:52.816Z,10.97
2019-06-10T13:53:21.354Z,14.87
2019-06-10T13:55:52.777Z,13.80
2019-06-10T13:58:26.638Z,15.67
2019-06-10T14:00:57.785Z,11.90
2019-06-10T14:03:26.648Z,8.97
2019-06-10T14:05:58.654Z,10.10
2019-06-10T14:08:24.948Z,6.47
2019-06-10T14:10:53.899Z,12.03
2019-06-10T14:13:23.805Z,9.20
2019-06-10T14:15:53.380Z,10.10
2019-06-10T14:18:23.174Z,7.63
2019-06-10T14:20:53.271Z,12.03
2019-06-10T14:23:22.481Z,9.90
2019-06-10T14:25:52.593Z,6.87
2019-06-10T14:28:38.705Z,5.83
2019-06-10T14:30:54.292Z,8.27
2019-06-10T14:33:24.941Z,9.63
2019-06-10T14:35:54.834Z,7.97
2019-06-10T14:38:27.781Z,6.60
2019-06-10T14:40:56.044Z,10.37
2019-06-10T14:43:24.488Z,10.90
2019-06-10T14:45:53.372Z,9.60
2019-06-10T14:48:23.279Z,11.20
2019-06-10T14:50:52.263Z,8.50
2019-06-10T14:53:22.959Z,10.63
2019-06-10T14:55:53.214Z,8.87
2019-06-10T14:58:23.124Z,12.30
2019-06-10T15:00:54.178Z,9.87
2019-06-10T15:03:20.876Z,6.53
2019-06-10T15:05:49.144Z,12.47
2019-06-10T15:08:17.510Z,12.17
2019-06-10T15:10:45.770Z,14.80
2019-06-10T15:13:14.035Z,12.47
2019-06-10T15:15:42.555Z,10.00
2019-06-10T15:18:12.188Z,14.90
2019-06-10T15:20:42.825Z,13.10
2019-06-10T15:23:13.923Z,15.07
2019-06-10T15:25:50.205Z,11.50
2019-06-10T15:28:13.186Z,11.30
2019-06-10T15:30:43.253Z,15.93
2019-06-10T15:33:13.244Z,18.73
2019-06-10T15:35:42.733Z,20.60
2019-06-10T15:38:13.930Z,18.07
2019-06-10T15:40:43.157Z,13.73
2019-06-10T15:43:11.782Z,19.77
2019-06-10T15:45:40.309Z,15.73
2019-06-10T15:48:10.191Z,15.10
2019-06-10T15:50:58.060Z,16.03
2019-06-10T15:53:26.339Z,13.97
2019-06-10T15:56:13.109Z,21.57
2019-06-10T15:58:26.075Z,12.70
2019-06-10T16:00:54.539Z,9.60
2019-06-10T16:03:25.479Z,10.80
2019-06-10T16:05:53.192Z,12.63
2019-06-10T16:08:22.569Z,12.17
2019-06-10T16:10:52.693Z,13.00
2019-06-10T16:13:24.012Z,11.27
2019-06-10T16:15:53.191Z,13.03
2019-06-10T16:18:25.152Z,15.50
2019-06-10T16:20:52.823Z,11.93
2019-06-10T16:23:24.600Z,12.57
2019-06-10T16:25:53.369Z,13.67
2019-06-10T16:28:23.397Z,12.30
2019-06-10T16:30:53.800Z,13.83
2019-06-10T16:33:24.052Z,14.80
2019-06-10T16:35:51.324Z,14.07
2019-06-10T16:38:22.374Z,15.87
2019-06-10T16:40:49.663Z,16.77
2019-06-10T16:43:17.943Z,16.67
2019-06-10T16:45:46.288Z,18.53
2019-06-10T16:48:14.560Z,21.37
2019-06-10T16:50:42.838Z,16.30
2019-06-10T16:53:13.689Z,16.20
2019-06-10T16:55:41.344Z,15.80
2019-06-10T16:58:10.068Z,19.53
2019-06-10T17:00:38.407Z,17.73
2019-06-10T17:03:08.151Z,17.63
2019-06-10T17:05:36.607Z,20.77
2019-06-10T17:08:05.800Z,17.37
2019-06-10T17:10:34.514Z,18.03
2019-06-10T17:13:04.657Z,18.33
2019-06-10T17:15:33.026Z,18.33
2019-06-10T17:18:02.841Z,17.80
2019-06-10T17:20:34.162Z,18.50
2019-06-10T17:23:03.288Z,18.07
2019-06-10T17:25:33.809Z,15.13
2019-06-10T17:28:15.065Z,19.63
2019-06-10T17:30:34.638Z,24.10
2019-06-10T17:33:02.355Z,21.13
2019-06-10T17:35:35.748Z,18.63
2019-06-10T17:38:02.761Z,26.90
2019-06-10T17:40:31.682Z,17.50
2019-06-10T17:43:02.424Z,13.13
2019-06-10T17:45:32.199Z,16.10
2019-06-10T17:48:02.959Z,17.57
2019-06-10T17:50:32.865Z,21.87
2019-06-10T17:53:02.571Z,22.07
2019-06-10T17:55:34.101Z,22.90
2019-06-10T17:58:02.939Z,29.80
2019-06-10T18:00:34.441Z,27.43
2019-06-10T18:03:03.746Z,27.33
2019-06-10T18:05:31.526Z,33.00
2019-06-10T18:08:02.171Z,30.33
2019-06-10T18:10:29.960Z,24.30
2019-06-10T18:13:12.722Z,24.43
2019-06-10T18:15:28.295Z,24.63
2019-06-10T18:17:56.642Z,27.67
2019-06-10T18:20:26.424Z,25.53
2019-06-10T18:22:54.896Z,26.83
2019-06-10T18:25:24.801Z,32.57
2019-06-10T18:27:56.348Z,28.27
2019-06-10T18:30:25.114Z,27.60
2019-06-10T18:32:54.329Z,30.33
2019-06-10T18:35:25.849Z,35.37
2019-06-10T18:37:56.941Z,28.30
2019-06-10T18:40:27.466Z,29.43
2019-06-10T18:42:57.020Z,30.70
2019-06-10T18:45:25.285Z,20.77
2019-06-10T18:47:55.996Z,23.67
2019-06-10T18:50:28.096Z,25.73
2019-06-10T18:52:58.584Z,25.80
2019-06-10T18:55:26.442Z,31.37
2019-06-10T18:57:59.365Z,26.17
2019-06-10T19:00:44.971Z,22.77
2019-06-10T19:03:10.399Z,29.93
2019-06-10T19:05:33.101Z,28.70
2019-06-10T19:08:02.456Z,28.10
2019-06-10T19:10:33.540Z,25.13
2019-06-10T19:13:05.559Z,25.60
2019-06-10T19:15:33.889Z,25.80
2019-06-10T19:18:03.593Z,24.10
2019-06-10T19:20:36.416Z,33.27
2019-06-10T19:23:02.585Z,29.77
2019-06-10T19:25:33.783Z,34.13
2019-06-10T19:28:01.330Z,31.87
2019-06-10T19:30:31.119Z,28.90
2019-06-10T19:32:59.580Z,28.70
2019-06-10T19:35:27.864Z,26.17
2019-06-10T19:38:12.540Z,37.73
2019-06-10T19:40:42.902Z,36.80
2019-06-10T19:43:12.969Z,33.33
2019-06-10T19:45:46.966Z,38.27
2019-06-10T19:48:16.840Z,28.37
2019-06-10T19:50:51.311Z,37.20
2019-06-10T19:53:19.076Z,33.80
2019-06-10T19:55:47.334Z,40.20
2019-06-10T19:58:15.597Z,34.27
2019-06-10T20:00:50.729Z,40.37
2019-06-10T20:03:14.240Z,32.93
2019-06-10T20:05:44.810Z,31.10
2019-06-10T20:08:12.513Z,34.50
2019-06-10T20:10:40.771Z,32.67
2019-06-10T20:13:09.033Z,34.50
2019-06-10T20:15:37.440Z,34.73
2019-06-10T20:18:05.780Z,36.40
2019-06-10T20:20:34.045Z,37.13
2019-06-10T20:23:03.037Z,35.43
2019-06-10T20:25:32.897Z,37.50
2019-06-10T20:28:02.840Z,30.73
2019-06-10T20:30:33.277Z,36.93
2019-06-10T20:33:03.375Z,29.27
2019-06-10T20:35:32.682Z,31.53
2019-06-10T20:38:04.602Z,33.90
2019-06-10T20:40:32.028Z,36.43
2019-06-10T20:43:03.171Z,38.97
2019-06-10T20:45:33.178Z,39.33
2019-06-10T20:48:02.679Z,38.83
2019-06-10T20:50:32.336Z,33.17
2019-06-10T20:53:12.073Z,40.27
2019-06-10T20:55:40.488Z,43.87
2019-06-10T20:58:04.220Z,37.93
2019-06-10T21:00:36.696Z,38.43
2019-06-10T21:03:05.568Z,35.40
2019-06-10T21:05:34.094Z,43.93
2019-06-10T21:08:03.816Z,38.10
2019-06-10T21:10:34.870Z,38.10
2019-06-10T21:13:05.523Z,44.87
2019-06-10T21:15:35.049Z,43.87
2019-06-10T21:18:03.330Z,39.03
2019-06-10T21:20:33.146Z,43.60
2019-06-10T21:23:03.021Z,44.60
2019-06-10T21:25:32.442Z,44.80
2019-06-10T21:28:03.181Z,47.17
2019-06-10T21:30:38.458Z,46.73
2019-06-10T21:33:03.540Z,46.27
2019-06-10T21:35:31.638Z,49.70
2019-06-10T21:38:00.236Z,45.17
2019-06-10T21:40:28.492Z,47.97
2019-06-10T21:42:56.756Z,47.13
2019-06-10T21:45:25.110Z,53.30
2019-06-10T21:47:54.544Z,54.97
2019-06-10T21:50:23.012Z,53.27
2019-06-10T21:52:53.484Z,44.60
2019-06-10T21:55:22.484Z,45.13
2019-06-10T21:57:53.176Z,45.63
2019-06-10T22:00:23.731Z,49.27
2019-06-10T22:02:58.045Z,47.10
2019-06-10T22:05:22.477Z,45.27
2019-06-10T22:07:54.883Z,52.17
2019-06-10T22:10:22.843Z,48.30
2019-06-10T22:12:53.115Z,44.10
2019-06-10T22:15:22.615Z,40.83
2019-06-10T22:17:52.962Z,46.17
2019-06-10T22:20:22.699Z,42.13
2019-06-10T22:22:53.236Z,44.40
2019-06-10T22:25:22.372Z,52.43
2019-06-10T22:27:51.865Z,48.30
2019-06-10T22:30:22.712Z,49.60
2019-06-10T22:32:52.666Z,51.77
2019-06-10T22:35:22.930Z,45.33
2019-06-10T22:37:52.600Z,50.57
2019-06-10T22:40:22.409Z,54.87
2019-06-10T22:42:53.680Z,48.03
2019-06-10T22:45:20.510Z,50.13
2019-06-10T22:47:49.711Z,55.77
2019-06-10T22:50:18.783Z,58.67
2019-06-10T22:52:47.229Z,60.33
2019-06-10T22:55:15.615Z,55.43
2019-06-10T22:57:44.096Z,52.50
2019-06-10T23:00:13.140Z,56.83
2019-06-10T23:02:43.732Z,53.53
2019-06-10T23:05:13.250Z,61.37
2019-06-10T23:07:43.385Z,56.83
2019-06-10T23:10:12.350Z,64.67
2019-06-10T23:12:42.969Z,69.40
2019-06-10T23:15:12.925Z,59.00
2019-06-10T23:17:42.306Z,61.27
2019-06-10T23:20:12.403Z,57.73
2019-06-10T23:22:41.076Z,61.93
2019-06-10T23:25:09.331Z,66.67
2019-06-10T23:27:40.871Z,63.33
2019-06-10T23:30:11.748Z,60.13
2019-06-10T23:32:38.339Z,75.27
2019-06-10T23:35:06.893Z,60.60
2019-06-10T23:37:35.251Z,64.17
2019-06-10T23:40:04.490Z,67.63
2019-06-10T23:42:33.308Z,63.07
2019-06-10T23:45:04.742Z,70.90
2019-06-10T23:47:32.645Z,69.87
2019-06-10T23:50:04.183Z,69.47
2019-06-10T23:52:32.964Z,65.30
2019-06-10T23:55:03.095Z,68.23
2019-06-10T23:57:32.924Z,65.93
